La Grange, TX

1:02 AM CST on November 26, 2014 (GMT -0600)
RAWS LA GRANGE TX US | Change Station
CLOSE
Current Station
Personal Weather Station
Location: La Grange, TX
Elevation: 154 ft
Nearby Weather Stations

Elev 154 ft 29.91 °N, 96.86 °W | Updated 59 minutes ago

Clear
Clear
50 °F
Feels Like 49 °F
N
4
Wind Variable Wind from South
Gusts 11.0 mph

Today
High -- | Low -- °F
--% Chance of Precip.
Yesterday
High -- | Low -- °F
Precip. -- in
7:01 AM 5:27 PM
Waxing Crescent, 17% visible
Pressure 30.20 in
Visibility 10.0 miles
Clouds Clear
Windchill 49 °F
Dew Point 34 °F
Humidity 54%
Rainfall 0.00 in
Snow Depth Not available.
UV 0 out of 12
Pollen 4.80 out of 12
Air Quality Not available.
Flu Activity Not available.
METAR K3T5 260630Z AUTO 21004KT 10SM CLR 09/02 A3020 RMK AO2 T00930020

More Conditions Fewer Conditions

Pressure 30.20 in
Visibility 10.0 miles
Clouds Clear
Windchill 49 °F
Dew Point 34 °F
Humidity 54%
Rainfall 0.00 in
Snow Depth Not available.
UV 0 out of 12
Pollen 4.80 out of 12
Air Quality Not available.
Flu Activity Not available.
METAR K3T5 260630Z AUTO 21004KT 10SM CLR 09/02 A3020 RMK AO2 T00930020

More Conditions Fewer Conditions

10-Day Weather Forecast

Almanac

Astronomy

Nov. 26, 2014 Rise Set
Actual Time
Civil Twilight
Nautical Twilight
Astronomical Twilight
Moon
Length of Visible Light
Length of Day
Tomorrow will be .
, % of the Moon is Illuminated

Today's Extremes

State Highs State Lows

Community

WunderPhotos

Upload Photos

1,773,694 photos uploaded!

WunderBlogs® & News

Nearby

Air Quality

  Air Quality AQ Index Pollutant
Not available.

Snow Depth

Station Depth Elevation

Earthquake Activity

City Distance Mag. Time & Date
Minimum magnitude displayed is 2.5.

Coastal Water Temperatures

Place Temperature

Nearby Weather Stations